sensor_id;sensor_type;location;lat;lon;timestamp;temperature;humidity
9271;DHT22;4673;53.458;9.940;2023-07-16T00:00:50;19.40;76.60
9271;DHT22;4673;53.458;9.940;2023-07-16T00:03:16;19.40;77.10
9271;DHT22;4673;53.458;9.940;2023-07-16T00:05:42;19.40;77.10
9271;DHT22;4673;53.458;9.940;2023-07-16T00:08:07;19.40;77.00
9271;DHT22;4673;53.458;9.940;2023-07-16T00:10:36;19.40;76.50
9271;DHT22;4673;53.458;9.940;2023-07-16T00:13:05;19.30;77.30
9271;DHT22;4673;53.458;9.940;2023-07-16T00:15:31;19.20;77.50
9271;DHT22;4673;53.458;9.940;2023-07-16T00:17:57;19.10;77.60
9271;DHT22;4673;53.458;9.940;2023-07-16T00:20:23;19.10;78.80
9271;DHT22;4673;53.458;9.940;2023-07-16T00:22:54;19.10;79.00
9271;DHT22;4673;53.458;9.940;2023-07-16T00:25:20;19.10;79.30
9271;DHT22;4673;53.458;9.940;2023-07-16T00:27:46;19.10;79.70
9271;DHT22;4673;53.458;9.940;2023-07-16T00:30:12;19.10;79.50
9271;DHT22;4673;53.458;9.940;2023-07-16T00:32:38;19.20;79.10
9271;DHT22;4673;53.458;9.940;2023-07-16T00:35:04;19.20;79.00
9271;DHT22;4673;53.458;9.940;2023-07-16T00:37:31;19.20;78.80
9271;DHT22;4673;53.458;9.940;2023-07-16T00:39:56;19.30;78.00
9271;DHT22;4673;53.458;9.940;2023-07-16T00:42:22;19.20;76.80
9271;DHT22;4673;53.458;9.940;2023-07-16T00:44:48;19.30;76.50
9271;DHT22;4673;53.458;9.940;2023-07-16T00:47:13;19.30;76.20
9271;DHT22;4673;53.458;9.940;2023-07-16T00:49:39;19.30;75.80
9271;DHT22;4673;53.458;9.940;2023-07-16T00:52:08;19.30;74.70
9271;DHT22;4673;53.458;9.940;2023-07-16T00:54:35;19.30;74.20
9271;DHT22;4673;53.458;9.940;2023-07-16T00:57:01;19.30;74.00
9271;DHT22;4673;53.458;9.940;2023-07-16T00:59:26;19.20;73.10
9271;DHT22;4673;53.458;9.940;2023-07-16T01:01:52;19.20;73.00
9271;DHT22;4673;53.458;9.940;2023-07-16T01:04:17;19.20;73.00
9271;DHT22;4673;53.458;9.940;2023-07-16T01:06:48;19.30;72.50
9271;DHT22;4673;53.458;9.940;2023-07-16T01:09:17;19.20;72.20
9271;DHT22;4673;53.458;9.940;2023-07-16T01:11:44;19.20;72.30
9271;DHT22;4673;53.458;9.940;2023-07-16T01:14:10;19.20;72.50
9271;DHT22;4673;53.458;9.940;2023-07-16T01:16:37;19.20;72.20
9271;DHT22;4673;53.458;9.940;2023-07-16T01:19:03;19.30;71.40
9271;DHT22;4673;53.458;9.940;2023-07-16T01:21:47;19.20;70.80
9271;DHT22;4673;53.458;9.940;2023-07-16T01:29:45;19.20;69.60
9271;DHT22;4673;53.458;9.940;2023-07-16T01:32:13;19.10;69.40
9271;DHT22;4673;53.458;9.940;2023-07-16T01:34:40;19.10;69.30
9271;DHT22;4673;53.458;9.940;2023-07-16T01:37:06;19.10;69.40
9271;DHT22;4673;53.458;9.940;2023-07-16T01:39:32;19.10;69.60
9271;DHT22;4673;53.458;9.940;2023-07-16T01:41:58;19.10;69.60
9271;DHT22;4673;53.458;9.940;2023-07-16T01:44:24;19.10;69.60
9271;DHT22;4673;53.458;9.940;2023-07-16T01:47:08;19.10;69.60
9271;DHT22;4673;53.458;9.940;2023-07-16T01:49:34;19.10;69.00
9271;DHT22;4673;53.458;9.940;2023-07-16T01:52:02;19.00;68.50
9271;DHT22;4673;53.458;9.940;2023-07-16T01:54:28;19.10;68.50
9271;DHT22;4673;53.458;9.940;2023-07-16T01:56:54;19.10;68.00
9271;DHT22;4673;53.458;9.940;2023-07-16T01:59:19;19.20;67.70
9271;DHT22;4673;53.458;9.940;2023-07-16T02:01:45;19.20;67.20
9271;DHT22;4673;53.458;9.940;2023-07-16T02:04:11;19.20;66.80
9271;DHT22;4673;53.458;9.940;2023-07-16T02:06:36;19.10;66.90
9271;DHT22;4673;53.458;9.940;2023-07-16T02:09:02;19.10;67.30
9271;DHT22;4673;53.458;9.940;2023-07-16T02:11:29;19.10;66.90
9271;DHT22;4673;53.458;9.940;2023-07-16T02:13:54;19.10;66.90
9271;DHT22;4673;53.458;9.940;2023-07-16T02:16:20;19.00;67.00
9271;DHT22;4673;53.458;9.940;2023-07-16T02:18:45;18.90;67.50
9271;DHT22;4673;53.458;9.940;2023-07-16T02:21:11;18.90;67.50
9271;DHT22;4673;53.458;9.940;2023-07-16T02:23:37;18.90;67.70
9271;DHT22;4673;53.458;9.940;2023-07-16T02:26:02;18.90;68.10
9271;DHT22;4673;53.458;9.940;2023-07-16T02:28:28;18.90;68.50
9271;DHT22;4673;53.458;9.940;2023-07-16T02:30:54;18.80;68.90
9271;DHT22;4673;53.458;9.940;2023-07-16T02:33:19;18.70;69.40
9271;DHT22;4673;53.458;9.940;2023-07-16T02:35:49;18.70;69.60
9271;DHT22;4673;53.458;9.940;2023-07-16T02:38:15;18.60;70.30
9271;DHT22;4673;53.458;9.940;2023-07-16T02:40:48;18.60;70.60
9271;DHT22;4673;53.458;9.940;2023-07-16T02:43:14;18.50;71.00
9271;DHT22;4673;53.458;9.940;2023-07-16T02:45:40;18.50;71.20
9271;DHT22;4673;53.458;9.940;2023-07-16T02:48:06;18.50;71.80
9271;DHT22;4673;53.458;9.940;2023-07-16T02:50:38;18.50;72.20
9271;DHT22;4673;53.458;9.940;2023-07-16T02:53:05;18.50;72.10
9271;DHT22;4673;53.458;9.940;2023-07-16T02:55:31;18.50;72.30
9271;DHT22;4673;53.458;9.940;2023-07-16T02:57:57;18.50;72.30
9271;DHT22;4673;53.458;9.940;2023-07-16T03:00:23;18.50;72.70
9271;DHT22;4673;53.458;9.940;2023-07-16T03:02:48;18.50;72.80
9271;DHT22;4673;53.458;9.940;2023-07-16T03:05:17;18.50;72.70
9271;DHT22;4673;53.458;9.940;2023-07-16T03:07:43;18.50;73.00
9271;DHT22;4673;53.458;9.940;2023-07-16T03:10:09;18.40;73.20
9271;DHT22;4673;53.458;9.940;2023-07-16T03:12:35;18.40;73.00
9271;DHT22;4673;53.458;9.940;2023-07-16T03:15:00;18.40;73.00
9271;DHT22;4673;53.458;9.940;2023-07-16T03:17:26;18.40;73.30
9271;DHT22;4673;53.458;9.940;2023-07-16T03:19:51;18.40;73.00
9271;DHT22;4673;53.458;9.940;2023-07-16T03:22:17;18.50;73.20
9271;DHT22;4673;53.458;9.940;2023-07-16T03:24:43;18.40;73.20
9271;DHT22;4673;53.458;9.940;2023-07-16T03:27:08;18.40;73.40
9271;DHT22;4673;53.458;9.940;2023-07-16T03:29:34;18.40;73.10
9271;DHT22;4673;53.458;9.940;2023-07-16T03:32:00;18.40;73.10
9271;DHT22;4673;53.458;9.940;2023-07-16T03:34:26;18.40;72.80
9271;DHT22;4673;53.458;9.940;2023-07-16T03:36:51;18.40;72.70
9271;DHT22;4673;53.458;9.940;2023-07-16T03:39:17;18.40;72.40
9271;DHT22;4673;53.458;9.940;2023-07-16T03:41:43;18.30;72.40
9271;DHT22;4673;53.458;9.940;2023-07-16T03:44:08;18.30;72.40
9271;DHT22;4673;53.458;9.940;2023-07-16T03:46:34;18.10;72.70
9271;DHT22;4673;53.458;9.940;2023-07-16T03:49:00;18.10;73.00
9271;DHT22;4673;53.458;9.940;2023-07-16T03:51:25;18.10;73.10
9271;DHT22;4673;53.458;9.940;2023-07-16T03:53:51;18.00;73.30
9271;DHT22;4673;53.458;9.940;2023-07-16T03:56:17;17.90;73.90
9271;DHT22;4673;53.458;9.940;2023-07-16T03:58:42;17.90;74.40
9271;DHT22;4673;53.458;9.940;2023-07-16T04:01:09;17.70;74.50
9271;DHT22;4673;53.458;9.940;2023-07-16T04:03:35;17.80;75.00
9271;DHT22;4673;53.458;9.940;2023-07-16T04:06:05;17.80;75.50
9271;DHT22;4673;53.458;9.940;2023-07-16T04:08:31;17.80;76.20
9271;DHT22;4673;53.458;9.940;2023-07-16T04:10:57;17.80;76.50
9271;DHT22;4673;53.458;9.940;2023-07-16T04:13:23;17.80;76.90
9271;DHT22;4673;53.458;9.940;2023-07-16T04:15:49;17.90;77.00
9271;DHT22;4673;53.458;9.940;2023-07-16T04:18:15;17.90;77.20
9271;DHT22;4673;53.458;9.940;2023-07-16T04:20:40;18.00;77.30
9271;DHT22;4673;53.458;9.940;2023-07-16T04:23:06;18.10;77.50
9271;DHT22;4673;53.458;9.940;2023-07-16T04:25:32;18.20;77.20
9271;DHT22;4673;53.458;9.940;2023-07-16T04:27:57;18.20;76.70
9271;DHT22;4673;53.458;9.940;2023-07-16T04:30:23;18.30;76.40
9271;DHT22;4673;53.458;9.940;2023-07-16T04:32:49;18.30;76.40
9271;DHT22;4673;53.458;9.940;2023-07-16T04:35:15;18.50;76.00
9271;DHT22;4673;53.458;9.940;2023-07-16T04:37:40;18.60;75.30
9271;DHT22;4673;53.458;9.940;2023-07-16T04:40:07;18.80;75.00
9271;DHT22;4673;53.458;9.940;2023-07-16T04:42:34;19.00;74.20
9271;DHT22;4673;53.458;9.940;2023-07-16T04:45:00;19.20;73.30
9271;DHT22;4673;53.458;9.940;2023-07-16T04:47:25;19.30;71.90
9271;DHT22;4673;53.458;9.940;2023-07-16T04:49:51;19.40;70.80
9271;DHT22;4673;53.458;9.940;2023-07-16T04:52:17;19.60;70.60
9271;DHT22;4673;53.458;9.940;2023-07-16T04:54:42;19.70;69.00
9271;DHT22;4673;53.458;9.940;2023-07-16T04:57:08;19.80;69.10
9271;DHT22;4673;53.458;9.940;2023-07-16T04:59:34;20.10;67.90
9271;DHT22;4673;53.458;9.940;2023-07-16T05:02:04;20.60;66.20
9271;DHT22;4673;53.458;9.940;2023-07-16T05:04:30;20.80;64.90
9271;DHT22;4673;53.458;9.940;2023-07-16T05:06:55;21.10;62.50
9271;DHT22;4673;53.458;9.940;2023-07-16T05:09:21;21.20;60.60
9271;DHT22;4673;53.458;9.940;2023-07-16T05:11:47;21.30;58.90
9271;DHT22;4673;53.458;9.940;2023-07-16T05:14:12;21.30;57.90
9271;DHT22;4673;53.458;9.940;2023-07-16T05:16:38;21.30;57.00
9271;DHT22;4673;53.458;9.940;2023-07-16T05:19:03;21.10;57.00
9271;DHT22;4673;53.458;9.940;2023-07-16T05:21:29;20.90;57.20
9271;DHT22;4673;53.458;9.940;2023-07-16T05:23:55;20.70;57.70
9271;DHT22;4673;53.458;9.940;2023-07-16T05:26:20;20.60;57.70
9271;DHT22;4673;53.458;9.940;2023-07-16T05:28:46;20.50;58.40
9271;DHT22;4673;53.458;9.940;2023-07-16T05:31:11;20.40;58.60
9271;DHT22;4673;53.458;9.940;2023-07-16T05:33:37;20.40;59.00
9271;DHT22;4673;53.458;9.940;2023-07-16T05:36:03;20.40;59.20
9271;DHT22;4673;53.458;9.940;2023-07-16T05:38:29;20.40;59.00
9271;DHT22;4673;53.458;9.940;2023-07-16T05:41:01;20.40;58.40
9271;DHT22;4673;53.458;9.940;2023-07-16T05:43:28;20.30;58.60
9271;DHT22;4673;53.458;9.940;2023-07-16T05:45:53;20.40;58.50
9271;DHT22;4673;53.458;9.940;2023-07-16T05:48:19;20.40;58.20
9271;DHT22;4673;53.458;9.940;2023-07-16T05:50:45;20.40;58.10
9271;DHT22;4673;53.458;9.940;2023-07-16T05:53:11;20.40;57.40
9271;DHT22;4673;53.458;9.940;2023-07-16T05:55:38;20.40;57.30
9271;DHT22;4673;53.458;9.940;2023-07-16T05:58:04;20.50;56.30
9271;DHT22;4673;53.458;9.940;2023-07-16T06:00:30;20.40;55.70
9271;DHT22;4673;53.458;9.940;2023-07-16T06:02:55;20.40;55.20
9271;DHT22;4673;53.458;9.940;2023-07-16T06:05:21;20.50;54.70
9271;DHT22;4673;53.458;9.940;2023-07-16T06:07:47;20.50;54.30
9271;DHT22;4673;53.458;9.940;2023-07-16T06:10:13;20.50;53.50
9271;DHT22;4673;53.458;9.940;2023-07-16T06:12:39;20.60;52.10
9271;DHT22;4673;53.458;9.940;2023-07-16T06:15:05;20.60;51.50
9271;DHT22;4673;53.458;9.940;2023-07-16T06:17:30;20.60;51.00
9271;DHT22;4673;53.458;9.940;2023-07-16T06:19:57;20.60;51.00
9271;DHT22;4673;53.458;9.940;2023-07-16T06:22:23;20.60;50.50
9271;DHT22;4673;53.458;9.940;2023-07-16T06:24:48;20.60;49.90
9271;DHT22;4673;53.458;9.940;2023-07-16T06:27:14;20.60;49.70
9271;DHT22;4673;53.458;9.940;2023-07-16T06:29:40;20.70;49.60
9271;DHT22;4673;53.458;9.940;2023-07-16T06:32:06;20.70;50.10
9271;DHT22;4673;53.458;9.940;2023-07-16T06:34:32;20.80;50.30
9271;DHT22;4673;53.458;9.940;2023-07-16T06:36:58;20.90;48.80
9271;DHT22;4673;53.458;9.940;2023-07-16T06:39:24;20.80;49.20
9271;DHT22;4673;53.458;9.940;2023-07-16T06:41:50;20.90;48.80
9271;DHT22;4673;53.458;9.940;2023-07-16T06:44:15;20.90;48.20
9271;DHT22;4673;53.458;9.940;2023-07-16T06:46:41;20.80;47.90
9271;DHT22;4673;53.458;9.940;2023-07-16T06:49:07;20.90;48.10
9271;DHT22;4673;53.458;9.940;2023-07-16T06:51:33;20.80;48.20
9271;DHT22;4673;53.458;9.940;2023-07-16T06:53:59;20.90;47.50
9271;DHT22;4673;53.458;9.940;2023-07-16T06:56:25;20.90;47.50
9271;DHT22;4673;53.458;9.940;2023-07-16T06:58:51;21.00;47.90
9271;DHT22;4673;53.458;9.940;2023-07-16T07:01:16;21.10;46.40
9271;DHT22;4673;53.458;9.940;2023-07-16T07:03:42;21.10;45.80
9271;DHT22;4673;53.458;9.940;2023-07-16T07:06:08;21.30;45.30
9271;DHT22;4673;53.458;9.940;2023-07-16T07:08:36;21.40;45.40
9271;DHT22;4673;53.458;9.940;2023-07-16T07:11:02;21.50;44.10
9271;DHT22;4673;53.458;9.940;2023-07-16T07:13:28;21.60;42.40
9271;DHT22;4673;53.458;9.940;2023-07-16T07:15:55;21.60;41.60
9271;DHT22;4673;53.458;9.940;2023-07-16T07:18:21;21.60;41.10
9271;DHT22;4673;53.458;9.940;2023-07-16T07:20:46;21.70;40.70
9271;DHT22;4673;53.458;9.940;2023-07-16T07:23:13;21.70;41.70
9271;DHT22;4673;53.458;9.940;2023-07-16T07:25:39;21.60;40.40
9271;DHT22;4673;53.458;9.940;2023-07-16T07:28:04;21.50;39.90
9271;DHT22;4673;53.458;9.940;2023-07-16T07:30:30;21.50;40.30
9271;DHT22;4673;53.458;9.940;2023-07-16T07:32:56;21.40;41.10
9271;DHT22;4673;53.458;9.940;2023-07-16T07:35:21;21.50;40.90
9271;DHT22;4673;53.458;9.940;2023-07-16T07:37:47;21.70;40.70
9271;DHT22;4673;53.458;9.940;2023-07-16T07:40:13;21.80;40.10
9271;DHT22;4673;53.458;9.940;2023-07-16T07:42:39;22.00;39.40
9271;DHT22;4673;53.458;9.940;2023-07-16T07:45:05;22.10;39.20
9271;DHT22;4673;53.458;9.940;2023-07-16T07:47:30;22.30;39.40
9271;DHT22;4673;53.458;9.940;2023-07-16T07:49:56;22.40;39.10
9271;DHT22;4673;53.458;9.940;2023-07-16T07:52:22;22.40;36.00
9271;DHT22;4673;53.458;9.940;2023-07-16T07:54:48;22.40;35.50
9271;DHT22;4673;53.458;9.940;2023-07-16T07:57:14;22.40;34.80
9271;DHT22;4673;53.458;9.940;2023-07-16T07:59:40;22.50;35.40
9271;DHT22;4673;53.458;9.940;2023-07-16T08:02:06;22.60;35.00
9271;DHT22;4673;53.458;9.940;2023-07-16T08:04:31;22.70;34.10
9271;DHT22;4673;53.458;9.940;2023-07-16T08:07:00;22.90;33.10
9271;DHT22;4673;53.458;9.940;2023-07-16T08:09:26;23.00;32.10
9271;DHT22;4673;53.458;9.940;2023-07-16T08:11:52;23.10;31.20
9271;DHT22;4673;53.458;9.940;2023-07-16T08:14:17;23.30;30.20
9271;DHT22;4673;53.458;9.940;2023-07-16T08:16:43;23.50;28.80
9271;DHT22;4673;53.458;9.940;2023-07-16T08:19:09;23.70;27.40
9271;DHT22;4673;53.458;9.940;2023-07-16T08:21:35;23.90;26.70
9271;DHT22;4673;53.458;9.940;2023-07-16T08:24:01;23.90;25.10
9271;DHT22;4673;53.458;9.940;2023-07-16T08:26:27;23.90;24.30
9271;DHT22;4673;53.458;9.940;2023-07-16T08:28:52;23.90;25.00
9271;DHT22;4673;53.458;9.940;2023-07-16T08:31:18;23.70;25.30
9271;DHT22;4673;53.458;9.940;2023-07-16T08:33:44;23.50;25.40
9271;DHT22;4673;53.458;9.940;2023-07-16T08:36:10;23.30;25.80
9271;DHT22;4673;53.458;9.940;2023-07-16T08:38:36;23.00;26.40
9271;DHT22;4673;53.458;9.940;2023-07-16T08:41:01;22.90;27.40
9271;DHT22;4673;53.458;9.940;2023-07-16T08:43:28;22.80;26.40
9271;DHT22;4673;53.458;9.940;2023-07-16T08:45:55;22.80;26.90
9271;DHT22;4673;53.458;9.940;2023-07-16T08:48:22;22.70;27.40
9271;DHT22;4673;53.458;9.940;2023-07-16T08:50:48;22.70;26.40
9271;DHT22;4673;53.458;9.940;2023-07-16T08:53:18;22.60;24.40
9271;DHT22;4673;53.458;9.940;2023-07-16T08:55:47;22.60;24.40
9271;DHT22;4673;53.458;9.940;2023-07-16T08:58:14;22.90;24.00
9271;DHT22;4673;53.458;9.940;2023-07-16T09:00:44;23.10;21.40
9271;DHT22;4673;53.458;9.940;2023-07-16T09:03:13;23.20;17.90
9271;DHT22;4673;53.458;9.940;2023-07-16T09:05:42;23.50;18.60
9271;DHT22;4673;53.458;9.940;2023-07-16T09:08:07;23.50;17.00
9271;DHT22;4673;53.458;9.940;2023-07-16T09:10:34;23.50;17.10
9271;DHT22;4673;53.458;9.940;2023-07-16T09:12:59;23.50;17.30
9271;DHT22;4673;53.458;9.940;2023-07-16T09:15:28;23.50;17.20
9271;DHT22;4673;53.458;9.940;2023-07-16T09:17:54;23.40;17.00
9271;DHT22;4673;53.458;9.940;2023-07-16T09:20:21;23.30;16.10
9271;DHT22;4673;53.458;9.940;2023-07-16T09:22:49;23.00;16.80
9271;DHT22;4673;53.458;9.940;2023-07-16T09:25:15;23.00;18.00
9271;DHT22;4673;53.458;9.940;2023-07-16T09:27:42;23.00;18.10
9271;DHT22;4673;53.458;9.940;2023-07-16T09:30:14;22.80;19.20
9271;DHT22;4673;53.458;9.940;2023-07-16T09:32:40;22.80;20.70
9271;DHT22;4673;53.458;9.940;2023-07-16T09:35:09;22.90;18.80
9271;DHT22;4673;53.458;9.940;2023-07-16T09:37:37;22.90;18.50
9271;DHT22;4673;53.458;9.940;2023-07-16T09:40:06;23.00;15.90
9271;DHT22;4673;53.458;9.940;2023-07-16T09:42:39;23.00;16.20
9271;DHT22;4673;53.458;9.940;2023-07-16T09:45:16;23.50;16.70
9271;DHT22;4673;53.458;9.940;2023-07-16T09:47:42;23.90;12.70
9271;DHT22;4673;53.458;9.940;2023-07-16T09:50:08;24.00;11.90
9271;DHT22;4673;53.458;9.940;2023-07-16T09:52:34;24.00;10.20
9271;DHT22;4673;53.458;9.940;2023-07-16T09:55:02;24.00;11.10
9271;DHT22;4673;53.458;9.940;2023-07-16T09:57:35;24.40;11.60
9271;DHT22;4673;53.458;9.940;2023-07-16T10:00:04;24.70;9.10
9271;DHT22;4673;53.458;9.940;2023-07-16T10:02:34;25.00;7.00
9271;DHT22;4673;53.458;9.940;2023-07-16T10:05:26;24.80;6.60
9271;DHT22;4673;53.458;9.940;2023-07-16T10:07:56;25.00;7.30
9271;DHT22;4673;53.458;9.940;2023-07-16T10:10:29;25.00;6.90
9271;DHT22;4673;53.458;9.940;2023-07-16T10:13:03;25.20;6.80
9271;DHT22;4673;53.458;9.940;2023-07-16T10:15:29;25.30;6.40
9271;DHT22;4673;53.458;9.940;2023-07-16T10:17:56;25.40;5.50
9271;DHT22;4673;53.458;9.940;2023-07-16T10:20:34;25.40;5.20
9271;DHT22;4673;53.458;9.940;2023-07-16T10:23:20;25.50;5.00
9271;DHT22;4673;53.458;9.940;2023-07-16T10:26:02;25.20;5.00
9271;DHT22;4673;53.458;9.940;2023-07-16T10:28:32;25.10;5.10
9271;DHT22;4673;53.458;9.940;2023-07-16T10:30:58;25.10;5.00
9271;DHT22;4673;53.458;9.940;2023-07-16T10:33:24;25.30;5.10
9271;DHT22;4673;53.458;9.940;2023-07-16T10:35:49;25.60;5.00
9271;DHT22;4673;53.458;9.940;2023-07-16T10:38:15;25.60;5.00
9271;DHT22;4673;53.458;9.940;2023-07-16T10:40:41;25.50;5.00
9271;DHT22;4673;53.458;9.940;2023-07-16T10:43:07;25.50;5.00
9271;DHT22;4673;53.458;9.940;2023-07-16T10:45:34;25.40;5.00
9271;DHT22;4673;53.458;9.940;2023-07-16T10:47:59;25.10;5.00
9271;DHT22;4673;53.458;9.940;2023-07-16T10:50:25;25.00;5.00
9271;DHT22;4673;53.458;9.940;2023-07-16T10:52:55;25.10;5.00
9271;DHT22;4673;53.458;9.940;2023-07-16T10:55:23;25.30;5.00
9271;DHT22;4673;53.458;9.940;2023-07-16T10:57:49;25.30;5.00
9271;DHT22;4673;53.458;9.940;2023-07-16T11:00:16;25.40;5.00
9271;DHT22;4673;53.458;9.940;2023-07-16T11:02:42;25.20;5.00
9271;DHT22;4673;53.458;9.940;2023-07-16T11:05:13;25.20;5.00
9271;DHT22;4673;53.458;9.940;2023-07-16T11:07:43;25.20;5.00
9271;DHT22;4673;53.458;9.940;2023-07-16T11:10:09;25.30;5.00
9271;DHT22;4673;53.458;9.940;2023-07-16T11:12:34;25.30;5.00
9271;DHT22;4673;53.458;9.940;2023-07-16T11:15:00;25.40;5.00
9271;DHT22;4673;53.458;9.940;2023-07-16T11:17:26;25.80;5.00
9271;DHT22;4673;53.458;9.940;2023-07-16T11:19:53;26.00;5.00
9271;DHT22;4673;53.458;9.940;2023-07-16T11:22:27;25.90;5.00
9271;DHT22;4673;53.458;9.940;2023-07-16T11:24:53;25.90;5.00
9271;DHT22;4673;53.458;9.940;2023-07-16T11:27:25;25.80;5.00
9271;DHT22;4673;53.458;9.940;2023-07-16T11:35:00;25.40;5.00
9271;DHT22;4673;53.458;9.940;2023-07-16T11:37:30;25.30;5.00
9271;DHT22;4673;53.458;9.940;2023-07-16T11:40:07;25.20;5.00
9271;DHT22;4673;53.458;9.940;2023-07-16T11:42:37;25.20;5.00
9271;DHT22;4673;53.458;9.940;2023-07-16T11:45:04;25.30;5.00
9271;DHT22;4673;53.458;9.940;2023-07-16T11:47:31;25.30;5.00
9271;DHT22;4673;53.458;9.940;2023-07-16T11:49:57;25.30;5.00
9271;DHT22;4673;53.458;9.940;2023-07-16T11:52:27;25.30;5.00
9271;DHT22;4673;53.458;9.940;2023-07-16T11:54:53;25.50;5.00
9271;DHT22;4673;53.458;9.940;2023-07-16T11:57:19;25.60;5.00
9271;DHT22;4673;53.458;9.940;2023-07-16T11:59:45;25.60;5.00
9271;DHT22;4673;53.458;9.940;2023-07-16T12:02:11;25.60;5.00
9271;DHT22;4673;53.458;9.940;2023-07-16T12:04:37;25.60;5.00
9271;DHT22;4673;53.458;9.940;2023-07-16T12:07:03;25.70;5.00
9271;DHT22;4673;53.458;9.940;2023-07-16T12:09:29;25.90;5.00
9271;DHT22;4673;53.458;9.940;2023-07-16T12:11:54;26.00;5.00
9271;DHT22;4673;53.458;9.940;2023-07-16T12:14:20;26.10;5.00
9271;DHT22;4673;53.458;9.940;2023-07-16T12:16:46;26.00;5.00
9271;DHT22;4673;53.458;9.940;2023-07-16T12:19:11;25.90;5.00
9271;DHT22;4673;53.458;9.940;2023-07-16T12:21:37;25.80;5.00
9271;DHT22;4673;53.458;9.940;2023-07-16T12:24:03;25.60;5.00
9271;DHT22;4673;53.458;9.940;2023-07-16T12:26:29;25.30;5.00
9271;DHT22;4673;53.458;9.940;2023-07-16T12:28:54;25.30;5.00
9271;DHT22;4673;53.458;9.940;2023-07-16T12:31:20;25.70;5.00
9271;DHT22;4673;53.458;9.940;2023-07-16T12:33:47;25.90;5.00
9271;DHT22;4673;53.458;9.940;2023-07-16T12:36:13;26.00;5.00
9271;DHT22;4673;53.458;9.940;2023-07-16T12:38:39;26.00;5.00
9271;DHT22;4673;53.458;9.940;2023-07-16T12:41:06;26.10;5.00
9271;DHT22;4673;53.458;9.940;2023-07-16T12:43:31;26.30;5.00
9271;DHT22;4673;53.458;9.940;2023-07-16T12:46:00;26.10;5.00
9271;DHT22;4673;53.458;9.940;2023-07-16T12:48:28;26.00;5.00
9271;DHT22;4673;53.458;9.940;2023-07-16T12:50:54;26.20;5.00
9271;DHT22;4673;53.458;9.940;2023-07-16T12:53:19;26.30;5.00
9271;DHT22;4673;53.458;9.940;2023-07-16T12:55:45;26.60;5.00
9271;DHT22;4673;53.458;9.940;2023-07-16T12:58:13;26.40;5.00
9271;DHT22;4673;53.458;9.940;2023-07-16T13:00:39;26.30;5.00
9271;DHT22;4673;53.458;9.940;2023-07-16T13:03:07;26.20;5.00
9271;DHT22;4673;53.458;9.940;2023-07-16T13:05:40;26.20;5.00
9271;DHT22;4673;53.458;9.940;2023-07-16T13:08:06;26.30;5.00
9271;DHT22;4673;53.458;9.940;2023-07-16T13:10:32;26.30;5.00
9271;DHT22;4673;53.458;9.940;2023-07-16T13:12:58;26.30;5.00
9271;DHT22;4673;53.458;9.940;2023-07-16T13:15:23;26.30;5.00
9271;DHT22;4673;53.458;9.940;2023-07-16T13:17:49;26.10;5.00
9271;DHT22;4673;53.458;9.940;2023-07-16T13:20:15;26.20;5.00
9271;DHT22;4673;53.458;9.940;2023-07-16T13:22:41;26.50;5.00
9271;DHT22;4673;53.458;9.940;2023-07-16T13:25:07;26.70;5.00
9271;DHT22;4673;53.458;9.940;2023-07-16T13:27:33;26.70;5.00
9271;DHT22;4673;53.458;9.940;2023-07-16T13:29:59;26.50;5.00
9271;DHT22;4673;53.458;9.940;2023-07-16T13:32:24;26.50;5.00
9271;DHT22;4673;53.458;9.940;2023-07-16T13:34:50;26.30;5.00
9271;DHT22;4673;53.458;9.940;2023-07-16T13:37:15;26.20;5.00
9271;DHT22;4673;53.458;9.940;2023-07-16T13:39:41;26.30;5.00
9271;DHT22;4673;53.458;9.940;2023-07-16T13:42:07;26.40;5.00
9271;DHT22;4673;53.458;9.940;2023-07-16T13:44:33;26.70;5.00
9271;DHT22;4673;53.458;9.940;2023-07-16T13:46:59;26.70;5.00
9271;DHT22;4673;53.458;9.940;2023-07-16T13:49:25;26.70;5.00
9271;DHT22;4673;53.458;9.940;2023-07-16T13:51:50;26.60;5.00
9271;DHT22;4673;53.458;9.940;2023-07-16T13:54:16;26.50;5.00
9271;DHT22;4673;53.458;9.940;2023-07-16T13:56:41;26.30;5.00
9271;DHT22;4673;53.458;9.940;2023-07-16T13:59:07;26.00;5.00
9271;DHT22;4673;53.458;9.940;2023-07-16T14:01:37;25.80;5.00
9271;DHT22;4673;53.458;9.940;2023-07-16T14:04:03;25.80;5.00
9271;DHT22;4673;53.458;9.940;2023-07-16T14:06:30;25.80;5.00
9271;DHT22;4673;53.458;9.940;2023-07-16T14:08:55;25.70;5.00
9271;DHT22;4673;53.458;9.940;2023-07-16T14:11:22;25.70;5.00
9271;DHT22;4673;53.458;9.940;2023-07-16T14:13:48;25.60;5.00
9271;DHT22;4673;53.458;9.940;2023-07-16T14:16:17;25.30;5.00
9271;DHT22;4673;53.458;9.940;2023-07-16T14:18:43;25.30;5.00
9271;DHT22;4673;53.458;9.940;2023-07-16T14:21:09;25.40;5.00
9271;DHT22;4673;53.458;9.940;2023-07-16T14:23:34;25.60;5.00
9271;DHT22;4673;53.458;9.940;2023-07-16T14:26:00;25.80;5.00
9271;DHT22;4673;53.458;9.940;2023-07-16T14:28:27;26.00;5.00
9271;DHT22;4673;53.458;9.940;2023-07-16T14:30:53;26.20;5.00
9271;DHT22;4673;53.458;9.940;2023-07-16T14:33:19;26.30;5.00
9271;DHT22;4673;53.458;9.940;2023-07-16T14:35:44;26.20;5.00
9271;DHT22;4673;53.458;9.940;2023-07-16T14:38:10;26.20;5.00
9271;DHT22;4673;53.458;9.940;2023-07-16T14:40:36;26.20;5.00
9271;DHT22;4673;53.458;9.940;2023-07-16T14:43:04;26.10;5.00
9271;DHT22;4673;53.458;9.940;2023-07-16T14:45:31;26.20;5.00
9271;DHT22;4673;53.458;9.940;2023-07-16T14:47:58;26.10;5.00
9271;DHT22;4673;53.458;9.940;2023-07-16T14:50:24;25.90;5.00
9271;DHT22;4673;53.458;9.940;2023-07-16T14:52:49;25.80;5.00
9271;DHT22;4673;53.458;9.940;2023-07-16T14:55:15;25.90;5.00
9271;DHT22;4673;53.458;9.940;2023-07-16T14:57:41;26.00;5.00
9271;DHT22;4673;53.458;9.940;2023-07-16T15:00:07;26.00;5.00
9271;DHT22;4673;53.458;9.940;2023-07-16T15:02:36;25.90;5.00
9271;DHT22;4673;53.458;9.940;2023-07-16T15:05:03;25.70;5.00
9271;DHT22;4673;53.458;9.940;2023-07-16T15:07:30;25.60;5.00
9271;DHT22;4673;53.458;9.940;2023-07-16T15:09:55;25.40;5.00
9271;DHT22;4673;53.458;9.940;2023-07-16T15:12:21;25.30;5.00
9271;DHT22;4673;53.458;9.940;2023-07-16T15:14:47;25.30;5.00
9271;DHT22;4673;53.458;9.940;2023-07-16T15:17:12;25.20;5.00
9271;DHT22;4673;53.458;9.940;2023-07-16T15:19:39;25.10;5.00
9271;DHT22;4673;53.458;9.940;2023-07-16T15:22:06;25.00;5.00
9271;DHT22;4673;53.458;9.940;2023-07-16T15:24:32;25.20;5.00
9271;DHT22;4673;53.458;9.940;2023-07-16T15:26:58;25.40;5.00
9271;DHT22;4673;53.458;9.940;2023-07-16T15:29:24;25.50;5.00
9271;DHT22;4673;53.458;9.940;2023-07-16T15:31:49;25.40;5.00
9271;DHT22;4673;53.458;9.940;2023-07-16T15:34:15;25.50;5.00
9271;DHT22;4673;53.458;9.940;2023-07-16T15:36:41;25.70;5.00
9271;DHT22;4673;53.458;9.940;2023-07-16T15:39:07;25.90;5.00
9271;DHT22;4673;53.458;9.940;2023-07-16T15:41:33;25.90;5.00
9271;DHT22;4673;53.458;9.940;2023-07-16T15:43:59;25.70;5.00
9271;DHT22;4673;53.458;9.940;2023-07-16T15:46:25;25.60;5.00
9271;DHT22;4673;53.458;9.940;2023-07-16T15:48:50;25.40;5.00
9271;DHT22;4673;53.458;9.940;2023-07-16T15:51:16;25.20;5.00
9271;DHT22;4673;53.458;9.940;2023-07-16T15:53:42;25.20;5.00
9271;DHT22;4673;53.458;9.940;2023-07-16T15:56:12;25.10;5.00
9271;DHT22;4673;53.458;9.940;2023-07-16T15:58:37;25.20;5.00
9271;DHT22;4673;53.458;9.940;2023-07-16T16:01:04;25.20;5.00
9271;DHT22;4673;53.458;9.940;2023-07-16T16:03:30;25.20;5.00
9271;DHT22;4673;53.458;9.940;2023-07-16T16:05:56;25.20;5.00
9271;DHT22;4673;53.458;9.940;2023-07-16T16:08:21;25.10;5.00
9271;DHT22;4673;53.458;9.940;2023-07-16T16:10:51;25.20;5.00
9271;DHT22;4673;53.458;9.940;2023-07-16T16:13:18;25.10;5.00